San Rafael, CA

8:34 AM PST on December 27, 2014 (GMT -0800)
Red Hill | Change Station
CLOSE
Current Station
Personal Weather Station
Location: San Anselmo, CA
Elevation: 250 ft
Nearby Weather Stations

Elev 250 ft 37.98 °N, 122.56 °W | Updated 7 days ago

Partly Cloudy
Partly Cloudy
45 °F
Feels Like 45 °F
N
5
Wind Variable Wind from ENE
Gusts 7 mph

Today
High -- | Low -- °F
--% Chance of Precip.
Yesterday
High -- | Low -- °F
Precip. -- in
7:25 AM 4:57 PM
Waxing Crescent, 38% visible
Pressure 30.31 in
Visibility 10.0 miles
Clouds Clear
Dew Point 36 °F
Humidity 66%
Rainfall 0.66 in
Snow Depth Not available.
UV 0.0 out of 12
Pollen 5.70 out of 12
Air Quality Not available.
Flu Activity Not available.
METAR KAPC 271554Z AUTO 34003KT 10SM CLR M01/M02 A3033 RMK AO2 SLP262 T10061022 $

More Conditions Fewer Conditions

Pressure 30.31 in
Visibility 10.0 miles
Clouds Clear
Dew Point 36 °F
Humidity 66%
Rainfall 0.66 in
Snow Depth Not available.
UV 0.0 out of 12
Pollen 5.70 out of 12
Air Quality Not available.
Flu Activity Not available.
METAR KAPC 271554Z AUTO 34003KT 10SM CLR M01/M02 A3033 RMK AO2 SLP262 T10061022 $

More Conditions Fewer Conditions

10-Day Weather Forecast

Almanac

Astronomy

Dec. 27, 2014 Rise Set
Actual Time
Civil Twilight
Nautical Twilight
Astronomical Twilight
Moon
Length of Visible Light
Length of Day
Tomorrow will be .
, % of the Moon is Illuminated

Today's Extremes

State Highs State Lows

Community

WunderPhotos

Upload Photos

1,780,954 photos uploaded!

WunderBlogs® & News

Nearby

Air Quality

  Air Quality AQ Index Pollutant
Not available.

Snow Depth

Station Depth Elevation

Earthquake Activity

City Distance Mag. Time & Date
Minimum magnitude displayed is 2.5.

Coastal Water Temperatures

Place Temperature

Nearby Weather Stations